sensor_id;sensor_type;location;lat;lon;timestamp;temperature;humidity
1888;DHT22;944;51.574;6.980;2022-10-16T00:01:41;12.80;99.90
1888;DHT22;944;51.574;6.980;2022-10-16T00:04:08;12.70;99.90
1888;DHT22;944;51.574;6.980;2022-10-16T00:06:37;12.70;99.90
1888;DHT22;944;51.574;6.980;2022-10-16T00:09:05;12.70;99.90
1888;DHT22;944;51.574;6.980;2022-10-16T00:11:35;12.80;99.90
1888;DHT22;944;51.574;6.980;2022-10-16T00:14:05;12.70;99.90
1888;DHT22;944;51.574;6.980;2022-10-16T00:16:34;12.60;99.90
1888;DHT22;944;51.574;6.980;2022-10-16T00:19:01;12.70;99.90
1888;DHT22;944;51.574;6.980;2022-10-16T00:21:30;12.70;99.90
1888;DHT22;944;51.574;6.980;2022-10-16T00:23:58;12.70;99.90
1888;DHT22;944;51.574;6.980;2022-10-16T00:26:27;12.70;99.90
1888;DHT22;944;51.574;6.980;2022-10-16T00:28:57;12.70;99.90
1888;DHT22;944;51.574;6.980;2022-10-16T00:31:25;12.70;99.90
1888;DHT22;944;51.574;6.980;2022-10-16T00:33:52;12.60;99.90
1888;DHT22;944;51.574;6.980;2022-10-16T00:36:21;12.60;99.90
1888;DHT22;944;51.574;6.980;2022-10-16T00:38:50;12.50;99.90
1888;DHT22;944;51.574;6.980;2022-10-16T00:41:21;12.60;99.90
1888;DHT22;944;51.574;6.980;2022-10-16T00:43:50;12.60;99.90
1888;DHT22;944;51.574;6.980;2022-10-16T00:46:22;12.60;99.90
1888;DHT22;944;51.574;6.980;2022-10-16T00:48:52;12.60;99.90
1888;DHT22;944;51.574;6.980;2022-10-16T00:51:24;12.60;99.90
1888;DHT22;944;51.574;6.980;2022-10-16T00:53:52;12.60;99.90
1888;DHT22;944;51.574;6.980;2022-10-16T00:56:22;12.60;99.90
1888;DHT22;944;51.574;6.980;2022-10-16T00:58:49;12.60;99.90
1888;DHT22;944;51.574;6.980;2022-10-16T01:01:16;12.60;99.90
1888;DHT22;944;51.574;6.980;2022-10-16T01:03:44;12.60;99.90
1888;DHT22;944;51.574;6.980;2022-10-16T01:06:27;12.70;99.90
1888;DHT22;944;51.574;6.980;2022-10-16T01:09:10;12.60;99.90
1888;DHT22;944;51.574;6.980;2022-10-16T01:11:45;12.60;99.90
1888;DHT22;944;51.574;6.980;2022-10-16T01:14:22;12.60;99.90
1888;DHT22;944;51.574;6.980;2022-10-16T01:16:55;12.60;99.90
1888;DHT22;944;51.574;6.980;2022-10-16T01:19:39;12.60;99.90
1888;DHT22;944;51.574;6.980;2022-10-16T01:22:15;12.60;99.90
1888;DHT22;944;51.574;6.980;2022-10-16T01:24:46;12.60;99.90
1888;DHT22;944;51.574;6.980;2022-10-16T01:27:18;12.60;99.90
1888;DHT22;944;51.574;6.980;2022-10-16T01:29:51;12.60;99.90
1888;DHT22;944;51.574;6.980;2022-10-16T01:32:26;12.60;99.90
1888;DHT22;944;51.574;6.980;2022-10-16T01:35:03;12.50;99.90
1888;DHT22;944;51.574;6.980;2022-10-16T01:37:41;12.50;99.90
1888;DHT22;944;51.574;6.980;2022-10-16T01:40:12;12.50;99.90
1888;DHT22;944;51.574;6.980;2022-10-16T01:42:46;12.50;99.90
1888;DHT22;944;51.574;6.980;2022-10-16T01:45:16;12.50;99.90
1888;DHT22;944;51.574;6.980;2022-10-16T01:47:46;12.40;99.90
1888;DHT22;944;51.574;6.980;2022-10-16T01:50:16;12.40;99.90
1888;DHT22;944;51.574;6.980;2022-10-16T01:52:47;12.30;99.90
1888;DHT22;944;51.574;6.980;2022-10-16T01:55:20;12.30;99.90
1888;DHT22;944;51.574;6.980;2022-10-16T01:57:51;12.30;99.90
1888;DHT22;944;51.574;6.980;2022-10-16T02:00:21;12.20;99.90
1888;DHT22;944;51.574;6.980;2022-10-16T02:02:51;12.20;99.90
1888;DHT22;944;51.574;6.980;2022-10-16T02:05:23;12.20;99.90
1888;DHT22;944;51.574;6.980;2022-10-16T02:07:55;12.20;99.90
1888;DHT22;944;51.574;6.980;2022-10-16T02:10:23;12.20;99.90
1888;DHT22;944;51.574;6.980;2022-10-16T02:12:58;12.20;99.90
1888;DHT22;944;51.574;6.980;2022-10-16T02:15:29;12.20;99.90
1888;DHT22;944;51.574;6.980;2022-10-16T02:17:56;12.20;99.90
1888;DHT22;944;51.574;6.980;2022-10-16T02:20:27;12.30;99.90
1888;DHT22;944;51.574;6.980;2022-10-16T02:22:56;12.30;99.90
1888;DHT22;944;51.574;6.980;2022-10-16T02:25:29;12.30;99.90
1888;DHT22;944;51.574;6.980;2022-10-16T02:28:03;12.30;99.90
1888;DHT22;944;51.574;6.980;2022-10-16T02:30:36;12.30;99.90
1888;DHT22;944;51.574;6.980;2022-10-16T02:33:07;12.50;99.90
1888;DHT22;944;51.574;6.980;2022-10-16T02:35:36;12.30;99.90
1888;DHT22;944;51.574;6.980;2022-10-16T02:41:44;12.30;99.90
1888;DHT22;944;51.574;6.980;2022-10-16T02:44:13;12.30;99.90
1888;DHT22;944;51.574;6.980;2022-10-16T02:46:40;12.30;99.90
1888;DHT22;944;51.574;6.980;2022-10-16T02:49:07;12.20;99.90
1888;DHT22;944;51.574;6.980;2022-10-16T02:51:34;12.20;99.90
1888;DHT22;944;51.574;6.980;2022-10-16T02:54:01;12.30;99.90
1888;DHT22;944;51.574;6.980;2022-10-16T02:56:28;12.20;99.90
1888;DHT22;944;51.574;6.980;2022-10-16T02:58:56;12.20;99.90
1888;DHT22;944;51.574;6.980;2022-10-16T03:01:25;12.20;99.90
1888;DHT22;944;51.574;6.980;2022-10-16T03:03:52;12.20;99.90
1888;DHT22;944;51.574;6.980;2022-10-16T03:06:22;12.20;99.90
1888;DHT22;944;51.574;6.980;2022-10-16T03:08:51;12.20;99.90
1888;DHT22;944;51.574;6.980;2022-10-16T03:11:19;12.20;99.90
1888;DHT22;944;51.574;6.980;2022-10-16T03:17:28;12.20;99.90
1888;DHT22;944;51.574;6.980;2022-10-16T03:19:57;12.30;99.90
1888;DHT22;944;51.574;6.980;2022-10-16T03:22:24;12.20;99.90
1888;DHT22;944;51.574;6.980;2022-10-16T03:24:51;12.40;99.90
1888;DHT22;944;51.574;6.980;2022-10-16T03:27:18;12.40;99.90
1888;DHT22;944;51.574;6.980;2022-10-16T03:29:47;12.50;99.90
1888;DHT22;944;51.574;6.980;2022-10-16T03:32:14;12.50;99.90
1888;DHT22;944;51.574;6.980;2022-10-16T03:34:42;12.50;99.90
1888;DHT22;944;51.574;6.980;2022-10-16T03:37:09;12.50;99.90
1888;DHT22;944;51.574;6.980;2022-10-16T03:39:36;12.50;99.90
1888;DHT22;944;51.574;6.980;2022-10-16T03:42:03;12.60;99.90
1888;DHT22;944;51.574;6.980;2022-10-16T03:44:31;12.60;99.90
1888;DHT22;944;51.574;6.980;2022-10-16T03:46:58;12.60;99.90
1888;DHT22;944;51.574;6.980;2022-10-16T03:49:24;12.60;99.90
1888;DHT22;944;51.574;6.980;2022-10-16T03:51:53;12.60;99.90
1888;DHT22;944;51.574;6.980;2022-10-16T03:54:20;12.60;99.90
1888;DHT22;944;51.574;6.980;2022-10-16T03:56:47;12.50;99.90
1888;DHT22;944;51.574;6.980;2022-10-16T03:59:14;12.60;99.90
1888;DHT22;944;51.574;6.980;2022-10-16T04:01:41;12.70;99.90
1888;DHT22;944;51.574;6.980;2022-10-16T04:04:08;12.80;99.90
1888;DHT22;944;51.574;6.980;2022-10-16T04:06:35;12.70;99.90
1888;DHT22;944;51.574;6.980;2022-10-16T04:09:04;12.60;99.90
1888;DHT22;944;51.574;6.980;2022-10-16T04:11:31;12.60;99.90
1888;DHT22;944;51.574;6.980;2022-10-16T04:13:58;12.70;99.90
1888;DHT22;944;51.574;6.980;2022-10-16T04:16:25;12.70;99.90
1888;DHT22;944;51.574;6.980;2022-10-16T04:18:52;12.70;99.90
1888;DHT22;944;51.574;6.980;2022-10-16T04:21:21;12.70;99.90
1888;DHT22;944;51.574;6.980;2022-10-16T04:23:48;12.70;99.90
1888;DHT22;944;51.574;6.980;2022-10-16T04:26:16;12.70;99.90
1888;DHT22;944;51.574;6.980;2022-10-16T04:28:43;12.70;99.90
1888;DHT22;944;51.574;6.980;2022-10-16T04:31:10;12.70;99.90
1888;DHT22;944;51.574;6.980;2022-10-16T04:33:37;12.70;99.90
1888;DHT22;944;51.574;6.980;2022-10-16T04:36:04;12.60;99.90
1888;DHT22;944;51.574;6.980;2022-10-16T04:38:32;12.60;99.90
1888;DHT22;944;51.574;6.980;2022-10-16T04:40:58;12.60;99.90
1888;DHT22;944;51.574;6.980;2022-10-16T04:43:27;12.60;99.90
1888;DHT22;944;51.574;6.980;2022-10-16T04:45:54;12.60;99.90
1888;DHT22;944;51.574;6.980;2022-10-16T04:48:22;12.60;99.90
1888;DHT22;944;51.574;6.980;2022-10-16T04:50:49;12.60;99.90
1888;DHT22;944;51.574;6.980;2022-10-16T04:53:16;12.60;99.90
1888;DHT22;944;51.574;6.980;2022-10-16T04:55:43;12.50;99.90
1888;DHT22;944;51.574;6.980;2022-10-16T04:58:11;12.50;99.90
1888;DHT22;944;51.574;6.980;2022-10-16T05:04:06;12.40;99.90
1888;DHT22;944;51.574;6.980;2022-10-16T05:07:04;12.50;99.90
1888;DHT22;944;51.574;6.980;2022-10-16T05:09:32;12.50;99.90
1888;DHT22;944;51.574;6.980;2022-10-16T05:11:59;12.40;99.90
1888;DHT22;944;51.574;6.980;2022-10-16T05:14:26;12.60;99.90
1888;DHT22;944;51.574;6.980;2022-10-16T05:16:53;12.60;99.90
1888;DHT22;944;51.574;6.980;2022-10-16T05:19:21;12.60;99.90
1888;DHT22;944;51.574;6.980;2022-10-16T05:21:50;12.50;99.90
1888;DHT22;944;51.574;6.980;2022-10-16T05:24:17;12.70;99.90
1888;DHT22;944;51.574;6.980;2022-10-16T05:26:45;12.50;99.90
1888;DHT22;944;51.574;6.980;2022-10-16T05:29:12;12.50;99.90
1888;DHT22;944;51.574;6.980;2022-10-16T05:31:41;12.50;99.90
1888;DHT22;944;51.574;6.980;2022-10-16T05:34:08;12.60;99.90
1888;DHT22;944;51.574;6.980;2022-10-16T05:36:36;12.60;99.90
1888;DHT22;944;51.574;6.980;2022-10-16T05:39:03;12.60;99.90
1888;DHT22;944;51.574;6.980;2022-10-16T05:41:33;12.60;99.90
1888;DHT22;944;51.574;6.980;2022-10-16T05:44:00;12.60;99.90
1888;DHT22;944;51.574;6.980;2022-10-16T05:46:30;12.60;99.90
1888;DHT22;944;51.574;6.980;2022-10-16T05:48:57;12.70;99.90
1888;DHT22;944;51.574;6.980;2022-10-16T05:51:27;12.60;99.90
1888;DHT22;944;51.574;6.980;2022-10-16T05:53:58;12.40;99.90
1888;DHT22;944;51.574;6.980;2022-10-16T05:56:28;12.70;99.90
1888;DHT22;944;51.574;6.980;2022-10-16T05:59:01;12.60;99.90
1888;DHT22;944;51.574;6.980;2022-10-16T06:01:34;12.60;99.90
1888;DHT22;944;51.574;6.980;2022-10-16T06:04:04;12.50;99.90
1888;DHT22;944;51.574;6.980;2022-10-16T06:06:39;12.40;99.90
1888;DHT22;944;51.574;6.980;2022-10-16T06:09:14;12.50;99.90
1888;DHT22;944;51.574;6.980;2022-10-16T06:11:44;12.50;99.90
1888;DHT22;944;51.574;6.980;2022-10-16T06:14:16;12.40;99.90
1888;DHT22;944;51.574;6.980;2022-10-16T06:16:46;12.30;99.90
1888;DHT22;944;51.574;6.980;2022-10-16T06:19:16;12.50;99.90
1888;DHT22;944;51.574;6.980;2022-10-16T06:21:44;12.50;99.90
1888;DHT22;944;51.574;6.980;2022-10-16T06:24:15;12.50;99.90
1888;DHT22;944;51.574;6.980;2022-10-16T06:26:42;12.60;99.90
1888;DHT22;944;51.574;6.980;2022-10-16T06:29:12;12.50;99.90
1888;DHT22;944;51.574;6.980;2022-10-16T06:31:39;12.70;99.90
1888;DHT22;944;51.574;6.980;2022-10-16T06:34:08;12.60;99.90
1888;DHT22;944;51.574;6.980;2022-10-16T06:36:37;12.60;99.90
1888;DHT22;944;51.574;6.980;2022-10-16T06:39:05;12.60;99.90
1888;DHT22;944;51.574;6.980;2022-10-16T06:41:34;12.70;99.90
1888;DHT22;944;51.574;6.980;2022-10-16T06:44:01;12.70;99.90
1888;DHT22;944;51.574;6.980;2022-10-16T06:46:31;12.70;99.90
1888;DHT22;944;51.574;6.980;2022-10-16T06:48:58;12.70;99.90
1888;DHT22;944;51.574;6.980;2022-10-16T06:51:25;12.80;99.90
1888;DHT22;944;51.574;6.980;2022-10-16T06:53:53;12.80;99.90
1888;DHT22;944;51.574;6.980;2022-10-16T06:56:23;12.80;99.90
1888;DHT22;944;51.574;6.980;2022-10-16T06:58:53;12.80;99.90
1888;DHT22;944;51.574;6.980;2022-10-16T07:01:21;12.80;99.90
1888;DHT22;944;51.574;6.980;2022-10-16T07:03:49;12.80;99.90
1888;DHT22;944;51.574;6.980;2022-10-16T07:06:19;12.80;99.90
1888;DHT22;944;51.574;6.980;2022-10-16T07:08:47;12.80;99.90
1888;DHT22;944;51.574;6.980;2022-10-16T07:11:16;12.80;99.90
1888;DHT22;944;51.574;6.980;2022-10-16T07:13:45;12.80;99.90
1888;DHT22;944;51.574;6.980;2022-10-16T07:16:16;12.90;99.90
1888;DHT22;944;51.574;6.980;2022-10-16T07:18:45;12.90;99.90
1888;DHT22;944;51.574;6.980;2022-10-16T07:21:17;12.90;99.90
1888;DHT22;944;51.574;6.980;2022-10-16T07:23:53;12.90;99.90
1888;DHT22;944;51.574;6.980;2022-10-16T07:26:24;12.90;99.90
1888;DHT22;944;51.574;6.980;2022-10-16T07:28:58;12.90;99.90
1888;DHT22;944;51.574;6.980;2022-10-16T07:31:27;13.00;99.90
1888;DHT22;944;51.574;6.980;2022-10-16T07:33:58;13.10;99.90
1888;DHT22;944;51.574;6.980;2022-10-16T07:36:26;13.10;99.90
1888;DHT22;944;51.574;6.980;2022-10-16T07:38:53;13.20;99.90
1888;DHT22;944;51.574;6.980;2022-10-16T07:41:20;13.30;99.90
1888;DHT22;944;51.574;6.980;2022-10-16T07:43:47;13.50;99.90
1888;DHT22;944;51.574;6.980;2022-10-16T07:46:16;13.70;99.90
1888;DHT22;944;51.574;6.980;2022-10-16T07:48:44;14.00;99.90
1888;DHT22;944;51.574;6.980;2022-10-16T07:51:17;14.20;99.90
1888;DHT22;944;51.574;6.980;2022-10-16T07:53:45;14.50;99.90
1888;DHT22;944;51.574;6.980;2022-10-16T07:56:17;14.50;99.90
1888;DHT22;944;51.574;6.980;2022-10-16T07:58:47;14.80;99.90
1888;DHT22;944;51.574;6.980;2022-10-16T08:01:20;14.90;99.90
1888;DHT22;944;51.574;6.980;2022-10-16T08:03:50;15.10;99.90
1888;DHT22;944;51.574;6.980;2022-10-16T08:06:18;15.30;99.90
1888;DHT22;944;51.574;6.980;2022-10-16T08:08:46;15.60;99.90
1888;DHT22;944;51.574;6.980;2022-10-16T08:11:14;15.80;99.90
1888;DHT22;944;51.574;6.980;2022-10-16T08:13:41;15.90;1.00
1888;DHT22;944;51.574;6.980;2022-10-16T08:16:08;16.00;99.90
1888;DHT22;944;51.574;6.980;2022-10-16T08:18:35;16.10;99.90
1888;DHT22;944;51.574;6.980;2022-10-16T08:21:04;16.30;1.00
1888;DHT22;944;51.574;6.980;2022-10-16T08:23:32;16.30;99.90
1888;DHT22;944;51.574;6.980;2022-10-16T08:26:03;16.30;47.30
1888;DHT22;944;51.574;6.980;2022-10-16T08:28:31;16.70;99.90
1888;DHT22;944;51.574;6.980;2022-10-16T08:31:05;16.70;99.90
1888;DHT22;944;51.574;6.980;2022-10-16T08:33:33;16.80;99.90
1888;DHT22;944;51.574;6.980;2022-10-16T08:36:01;16.90;23.90
1888;DHT22;944;51.574;6.980;2022-10-16T08:38:31;17.00;1.00
1888;DHT22;944;51.574;6.980;2022-10-16T08:41:09;17.00;99.90
1888;DHT22;944;51.574;6.980;2022-10-16T08:43:57;17.00;11.80
1888;DHT22;944;51.574;6.980;2022-10-16T08:46:41;16.90;1.00
1888;DHT22;944;51.574;6.980;2022-10-16T08:49:13;16.50;99.90
1888;DHT22;944;51.574;6.980;2022-10-16T08:51:42;16.40;99.90
1888;DHT22;944;51.574;6.980;2022-10-16T08:54:20;16.20;1.00
1888;DHT22;944;51.574;6.980;2022-10-16T08:56:54;16.10;99.90
1888;DHT22;944;51.574;6.980;2022-10-16T08:59:21;16.10;99.90
1888;DHT22;944;51.574;6.980;2022-10-16T09:01:50;16.10;1.00
1888;DHT22;944;51.574;6.980;2022-10-16T09:04:46;16.00;1.00
1888;DHT22;944;51.574;6.980;2022-10-16T09:07:28;16.00;1.00
1888;DHT22;944;51.574;6.980;2022-10-16T09:10:11;16.00;99.90
1888;DHT22;944;51.574;6.980;2022-10-16T09:13:07;16.00;99.90
1888;DHT22;944;51.574;6.980;2022-10-16T09:16:14;16.00;1.00
1888;DHT22;944;51.574;6.980;2022-10-16T09:19:12;15.90;41.90
1888;DHT22;944;51.574;6.980;2022-10-16T09:21:44;15.90;99.90
1888;DHT22;944;51.574;6.980;2022-10-16T09:24:25;16.00;1.00
1888;DHT22;944;51.574;6.980;2022-10-16T09:27:02;16.10;99.90
1888;DHT22;944;51.574;6.980;2022-10-16T09:29:29;16.20;99.90
1888;DHT22;944;51.574;6.980;2022-10-16T09:31:57;16.30;99.90
1888;DHT22;944;51.574;6.980;2022-10-16T09:34:43;16.40;99.90
1888;DHT22;944;51.574;6.980;2022-10-16T09:37:13;16.50;99.90
1888;DHT22;944;51.574;6.980;2022-10-16T09:39:51;16.60;99.90
1888;DHT22;944;51.574;6.980;2022-10-16T09:42:32;16.50;1.00
1888;DHT22;944;51.574;6.980;2022-10-16T09:45:25;16.80;1.00
1888;DHT22;944;51.574;6.980;2022-10-16T09:51:36;16.70;99.90
1888;DHT22;944;51.574;6.980;2022-10-16T09:54:14;16.90;1.00
1888;DHT22;944;51.574;6.980;2022-10-16T09:56:46;16.90;1.00
1888;DHT22;944;51.574;6.980;2022-10-16T09:59:19;17.00;99.90
1888;DHT22;944;51.574;6.980;2022-10-16T10:01:48;16.90;99.90
1888;DHT22;944;51.574;6.980;2022-10-16T10:04:22;16.90;1.00
1888;DHT22;944;51.574;6.980;2022-10-16T10:06:55;17.20;1.00
1888;DHT22;944;51.574;6.980;2022-10-16T10:09:30;17.10;1.00
1888;DHT22;944;51.574;6.980;2022-10-16T10:12:14;17.20;1.00
1888;DHT22;944;51.574;6.980;2022-10-16T10:14:48;17.20;58.80
1888;DHT22;944;51.574;6.980;2022-10-16T10:17:18;17.30;1.00
1888;DHT22;944;51.574;6.980;2022-10-16T10:19:57;17.40;1.00
1888;DHT22;944;51.574;6.980;2022-10-16T10:22:44;17.30;1.00
1888;DHT22;944;51.574;6.980;2022-10-16T10:25:49;17.60;1.00
1888;DHT22;944;51.574;6.980;2022-10-16T10:31:34;17.70;99.90
1888;DHT22;944;51.574;6.980;2022-10-16T10:34:18;17.80;99.90
1888;DHT22;944;51.574;6.980;2022-10-16T10:37:00;17.60;94.00
1888;DHT22;944;51.574;6.980;2022-10-16T10:39:34;17.60;99.90
1888;DHT22;944;51.574;6.980;2022-10-16T10:42:20;17.70;99.90
1888;DHT22;944;51.574;6.980;2022-10-16T10:45:16;17.80;99.90
1888;DHT22;944;51.574;6.980;2022-10-16T10:47:57;17.90;1.00
1888;DHT22;944;51.574;6.980;2022-10-16T10:50:36;17.90;1.00
1888;DHT22;944;51.574;6.980;2022-10-16T10:53:17;17.90;99.90
1888;DHT22;944;51.574;6.980;2022-10-16T10:55:52;17.90;1.00
1888;DHT22;944;51.574;6.980;2022-10-16T11:01:38;18.00;1.00
1888;DHT22;944;51.574;6.980;2022-10-16T11:04:45;18.10;99.90
1888;DHT22;944;51.574;6.980;2022-10-16T11:07:25;18.10;1.00
1888;DHT22;944;51.574;6.980;2022-10-16T11:10:03;18.10;1.00
1888;DHT22;944;51.574;6.980;2022-10-16T11:12:41;18.20;1.00
1888;DHT22;944;51.574;6.980;2022-10-16T11:15:21;18.20;99.90
1888;DHT22;944;51.574;6.980;2022-10-16T11:18:15;18.20;99.90
1888;DHT22;944;51.574;6.980;2022-10-16T11:20:52;18.10;99.90
1888;DHT22;944;51.574;6.980;2022-10-16T11:23:40;18.00;1.00
1888;DHT22;944;51.574;6.980;2022-10-16T11:26:44;17.90;1.00
1888;DHT22;944;51.574;6.980;2022-10-16T11:29:29;17.90;1.00
1888;DHT22;944;51.574;6.980;2022-10-16T11:32:27;17.90;1.00
1888;DHT22;944;51.574;6.980;2022-10-16T11:38:47;18.10;1.00
1888;DHT22;944;51.574;6.980;2022-10-16T11:49:26;18.40;99.90
1888;DHT22;944;51.574;6.980;2022-10-16T11:52:40;18.30;99.90
1888;DHT22;944;51.574;6.980;2022-10-16T11:55:20;18.10;48.60
1888;DHT22;944;51.574;6.980;2022-10-16T12:01:41;17.90;1.00
1888;DHT22;944;51.574;6.980;2022-10-16T12:04:22;17.80;99.90
1888;DHT22;944;51.574;6.980;2022-10-16T12:06:57;17.70;1.00
1888;DHT22;944;51.574;6.980;2022-10-16T12:09:45;17.60;99.90
1888;DHT22;944;51.574;6.980;2022-10-16T12:12:53;17.50;96.70
1888;DHT22;944;51.574;6.980;2022-10-16T12:15:44;17.70;94.70
1888;DHT22;944;51.574;6.980;2022-10-16T12:18:36;17.90;99.90
1888;DHT22;944;51.574;6.980;2022-10-16T12:21:07;18.00;99.90
1888;DHT22;944;51.574;6.980;2022-10-16T12:23:48;18.10;27.20
1888;DHT22;944;51.574;6.980;2022-10-16T12:26:30;18.10;1.00
1888;DHT22;944;51.574;6.980;2022-10-16T12:29:23;18.10;1.00
1888;DHT22;944;51.574;6.980;2022-10-16T12:32:24;18.30;99.90
1888;DHT22;944;51.574;6.980;2022-10-16T12:35:42;18.30;99.90
1888;DHT22;944;51.574;6.980;2022-10-16T12:38:18;18.60;1.00
1888;DHT22;944;51.574;6.980;2022-10-16T12:41:08;18.50;1.00
1888;DHT22;944;51.574;6.980;2022-10-16T12:43:46;18.20;99.90
1888;DHT22;944;51.574;6.980;2022-10-16T12:46:42;18.30;39.20
1888;DHT22;944;51.574;6.980;2022-10-16T12:49:31;18.20;1.00
1888;DHT22;944;51.574;6.980;2022-10-16T12:52:04;18.20;99.90
1888;DHT22;944;51.574;6.980;2022-10-16T12:55:16;18.40;99.90
1888;DHT22;944;51.574;6.980;2022-10-16T12:58:27;18.20;99.90
1888;DHT22;944;51.574;6.980;2022-10-16T13:05:46;18.20;1.00
1888;DHT22;944;51.574;6.980;2022-10-16T13:09:12;18.10;99.90
1888;DHT22;944;51.574;6.980;2022-10-16T13:12:19;18.10;99.90
1888;DHT22;944;51.574;6.980;2022-10-16T13:15:45;18.20;1.30
1888;DHT22;944;51.574;6.980;2022-10-16T15:50:54;17.40;99.90
1888;DHT22;944;51.574;6.980;2022-10-16T16:24:48;16.60;1.00
1888;DHT22;944;51.574;6.980;2022-10-16T19:40:53;15.10;1.00
1888;DHT22;944;51.574;6.980;2022-10-16T19:47:06;14.90;99.90
1888;DHT22;944;51.574;6.980;2022-10-16T19:50:00;14.90;99.90
1888;DHT22;944;51.574;6.980;2022-10-16T19:53:06;14.80;99.90
1888;DHT22;944;51.574;6.980;2022-10-16T19:56:22;14.70;99.90
1888;DHT22;944;51.574;6.980;2022-10-16T20:02:52;14.70;99.90
1888;DHT22;944;51.574;6.980;2022-10-16T20:05:55;14.70;99.90
1888;DHT22;944;51.574;6.980;2022-10-16T20:12:45;14.60;99.90
1888;DHT22;944;51.574;6.980;2022-10-16T20:19:04;14.50;99.90
1888;DHT22;944;51.574;6.980;2022-10-16T20:21:33;14.50;99.90
1888;DHT22;944;51.574;6.980;2022-10-16T20:24:08;14.50;99.90
1888;DHT22;944;51.574;6.980;2022-10-16T20:26:42;14.50;99.90
1888;DHT22;944;51.574;6.980;2022-10-16T20:29:33;14.50;99.90
1888;DHT22;944;51.574;6.980;2022-10-16T20:32:21;14.50;99.90
1888;DHT22;944;51.574;6.980;2022-10-16T20:38:32;14.50;99.90
1888;DHT22;944;51.574;6.980;2022-10-16T20:44:44;14.50;99.90
1888;DHT22;944;51.574;6.980;2022-10-16T21:06:02;14.70;99.90
1888;DHT22;944;51.574;6.980;2022-10-16T21:09:25;14.60;99.90
1888;DHT22;944;51.574;6.980;2022-10-16T21:15:42;14.60;99.90
1888;DHT22;944;51.574;6.980;2022-10-16T21:18:37;14.50;99.90
1888;DHT22;944;51.574;6.980;2022-10-16T21:21:59;14.50;99.90
1888;DHT22;944;51.574;6.980;2022-10-16T21:28:19;14.50;99.90
1888;DHT22;944;51.574;6.980;2022-10-16T21:36:26;14.70;99.90
1888;DHT22;944;51.574;6.980;2022-10-16T21:40:55;14.70;99.90
1888;DHT22;944;51.574;6.980;2022-10-16T21:47:03;14.70;99.90
1888;DHT22;944;51.574;6.980;2022-10-16T21:56:48;14.60;99.90
1888;DHT22;944;51.574;6.980;2022-10-16T21:59:42;14.60;99.90
1888;DHT22;944;51.574;6.980;2022-10-16T22:02:11;14.50;99.90
1888;DHT22;944;51.574;6.980;2022-10-16T22:04:45;14.60;99.90
1888;DHT22;944;51.574;6.980;2022-10-16T22:11:23;14.50;99.90
1888;DHT22;944;51.574;6.980;2022-10-16T22:14:11;14.50;99.90
1888;DHT22;944;51.574;6.980;2022-10-16T22:16:49;14.50;99.90
1888;DHT22;944;51.574;6.980;2022-10-16T22:19:24;14.50;99.90
1888;DHT22;944;51.574;6.980;2022-10-16T22:25:55;14.50;99.90
1888;DHT22;944;51.574;6.980;2022-10-16T22:32:30;14.50;99.90
1888;DHT22;944;51.574;6.980;2022-10-16T22:34:57;14.40;99.90
1888;DHT22;944;51.574;6.980;2022-10-16T22:37:24;14.40;99.90
1888;DHT22;944;51.574;6.980;2022-10-16T22:39:57;14.40;99.90
1888;DHT22;944;51.574;6.980;2022-10-16T22:42:28;14.40;99.90
1888;DHT22;944;51.574;6.980;2022-10-16T22:45:07;14.30;99.90
1888;DHT22;944;51.574;6.980;2022-10-16T22:47:42;14.30;99.90
1888;DHT22;944;51.574;6.980;2022-10-16T22:50:12;14.30;99.90
1888;DHT22;944;51.574;6.980;2022-10-16T22:52:41;14.30;99.90
1888;DHT22;944;51.574;6.980;2022-10-16T22:55:11;14.20;99.90
1888;DHT22;944;51.574;6.980;2022-10-16T22:57:38;14.20;99.90
1888;DHT22;944;51.574;6.980;2022-10-16T23:00:12;14.20;99.90
1888;DHT22;944;51.574;6.980;2022-10-16T23:02:42;14.20;99.90
1888;DHT22;944;51.574;6.980;2022-10-16T23:05:11;14.30;99.90
1888;DHT22;944;51.574;6.980;2022-10-16T23:07:38;14.20;99.90
1888;DHT22;944;51.574;6.980;2022-10-16T23:10:14;14.20;99.90
1888;DHT22;944;51.574;6.980;2022-10-16T23:12:50;14.30;99.90
1888;DHT22;944;51.574;6.980;2022-10-16T23:19:54;14.50;99.90
1888;DHT22;944;51.574;6.980;2022-10-16T23:22:52;14.60;99.90
1888;DHT22;944;51.574;6.980;2022-10-16T23:26:09;14.70;99.90
1888;DHT22;944;51.574;6.980;2022-10-16T23:43:35;14.70;99.90
1888;DHT22;944;51.574;6.980;2022-10-16T23:46:10;14.50;99.90
1888;DHT22;944;51.574;6.980;2022-10-16T23:48:57;14.50;99.90
1888;DHT22;944;51.574;6.980;2022-10-16T23:51:49;14.60;99.90
1888;DHT22;944;51.574;6.980;2022-10-16T23:54:17;14.60;99.90
1888;DHT22;944;51.574;6.980;2022-10-16T23:56:51;14.60;99.90
1888;DHT22;944;51.574;6.980;2022-10-16T23:59:38;14.60;99.90
